createdAt,value
2022-12-04T00:00:19.457Z,100626.80
2022-12-04T00:03:45.904Z,100629.00
2022-12-04T00:06:29.238Z,100626.80
2022-12-04T00:09:29.464Z,100620.40
2022-12-04T00:12:18.436Z,100618.40
2022-12-04T00:18:01.040Z,100622.20
2022-12-04T00:20:36.374Z,100631.00
2022-12-04T00:23:23.845Z,100617.40
2022-12-04T00:26:06.257Z,100620.60
2022-12-04T00:28:44.819Z,100613.40
2022-12-04T00:31:40.682Z,100617.80
2022-12-04T00:34:42.405Z,100606.00
2022-12-04T00:37:19.056Z,100610.60
2022-12-04T00:39:51.821Z,100626.40
2022-12-04T00:42:26.547Z,100622.00
2022-12-04T00:45:29.451Z,100602.40
2022-12-04T00:47:58.276Z,100605.00
2022-12-04T00:50:32.662Z,100607.80
2022-12-04T00:53:09.499Z,100610.40
2022-12-04T00:55:43.793Z,100603.60
2022-12-04T00:58:24.782Z,100611.80
2022-12-04T01:01:04.754Z,100613.40
2022-12-04T01:03:41.484Z,100607.80
2022-12-04T01:06:19.362Z,100609.40
2022-12-04T01:08:57.111Z,100604.40
2022-12-04T01:11:29.995Z,100597.80
2022-12-04T01:14:02.595Z,100596.20
2022-12-04T01:16:40.068Z,100591.60
2022-12-04T01:19:15.581Z,100598.40
2022-12-04T01:21:50.591Z,100595.00
2022-12-04T01:24:22.513Z,100596.80
2022-12-04T01:26:56.453Z,100597.80
2022-12-04T01:29:28.509Z,100585.80
2022-12-04T01:32:01.546Z,100583.20
2022-12-04T01:34:37.337Z,100577.60
2022-12-04T01:37:13.575Z,100568.60
2022-12-04T01:39:49.654Z,100567.40
2022-12-04T01:42:23.075Z,100569.80
2022-12-04T01:45:39.423Z,100574.80
2022-12-04T01:48:42.545Z,100571.60
2022-12-04T01:51:29.229Z,100566.00
2022-12-04T01:54:17.146Z,100575.40
2022-12-04T01:56:58.893Z,100573.20
2022-12-04T01:59:45.727Z,100574.40
2022-12-04T02:02:26.584Z,100566.40
2022-12-04T02:05:03.056Z,100574.60
2022-12-04T02:07:40.698Z,100572.20
2022-12-04T02:10:14.141Z,100573.20
2022-12-04T02:13:06.151Z,100575.60
2022-12-04T02:15:54.946Z,100571.80
2022-12-04T02:18:45.725Z,100567.80
2022-12-04T02:21:37.344Z,100568.00
2022-12-04T02:24:32.289Z,100562.00
2022-12-04T02:27:09.504Z,100567.20
2022-12-04T02:30:01.829Z,100563.80
2022-12-04T02:32:57.857Z,100562.00
2022-12-04T02:35:35.730Z,100565.00
2022-12-04T02:38:19.472Z,100559.20
2022-12-04T02:41:20.242Z,100556.20
2022-12-04T02:43:56.519Z,100550.60
2022-12-04T02:46:47.941Z,100551.40
2022-12-04T02:49:47.341Z,100553.00
2022-12-04T02:53:18.259Z,100551.20
2022-12-04T02:56:43.434Z,100561.20
